METAR Data
IDs: Format: Raw Decoded Include TAF

Data at: 2135 UTC 18 Apr 2021

KF45 182105Z AUTO 15006KT 110V170 10SM SCT055 32/21 A2987 RMK AO2
KF45 182015Z AUTO 22006KT 10SM FEW050 33/18 A2988 RMK AO2
KF45 182005Z AUTO 24007KT 10SM SCT050 33/18 A2988 RMK AO2
KF45 181940Z AUTO 22007KT 190V260 10SM SCT050 33/18 A2989 RMK AO2
KF45 181915Z AUTO 20007G15KT 10SM FEW050 33/18 A2990 RMK AO2
KF45 181905Z AUTO 22011G16KT 10SM FEW055 34/18 A2990 RMK AO2
KF45 181815Z AUTO 24010KT 10SM FEW048 33/18 A2992 RMK AO2
KF45 181805Z AUTO 24011G15KT 10SM FEW048 33/18 A2992 RMK AO2
KF45 181705Z AUTO 22005G15KT 10SM SCT041 32/19 A2994 RMK AO2
KF45 181615Z AUTO 21010G16KT 150V240 10SM FEW039 32/19 A2995 RMK AO2
KF45 181605Z AUTO 24008KT 10SM FEW037 FEW047 32/19 A2995 RMK AO2
KF45 181510Z AUTO 20009KT 160V230 10SM CLR 30/19 A2997 RMK AO2
KF45 181505Z AUTO 21006KT 180V270 10SM CLR 30/19 A2997 RMK AO2
KF45 181415Z AUTO 20007KT 10SM CLR 29/20 A2998 RMK AO2
KF45 181405Z AUTO 20006KT 10SM CLR 28/20 A2998 RMK AO2
KF45 181315Z AUTO 20005KT 10SM CLR 26/22 A2998 RMK AO2
KF45 181305Z AUTO 23007KT 10SM CLR 25/22 A2999 RMK AO2
KF45 181205Z AUTO 19005KT 10SM FEW050 FEW065 22/22 A2998 RMK AO2
KF45 181135Z AUTO 19003KT 6SM BR CLR 22/22 A2998 RMK AO2
KF45 181125Z AUTO 20004KT 5SM BR FEW006 21/21 A2998 RMK AO2
KF45 181100Z AUTO 19004KT 3SM BR BKN005 21/21 A2997 RMK AO2
KF45 181000Z AUTO 00000KT 10SM SCT002 BKN049 OVC060 18/18 A2994 RMK AO2
KF45 180915Z AUTO 00000KT 5SM BR FEW046 SCT055 18/18 A2995 RMK AO2
KF45 180905Z AUTO 00000KT 1/2SM FG BKN046 BKN055 18/18 A2994 RMK AO2
KF45 180815Z AUTO 00000KT 1/2SM FG OVC050 18/18 A2995 RMK AO2
KF45 180805Z AUTO 00000KT 2 1/2SM BR BKN046 BKN050 18/18 A2994 RMK AO2
KF45 180715Z AUTO 00000KT 2 1/2SM BR SCT044 19/19 A2994 RMK AO2
KF45 180705Z AUTO 00000KT 2 1/2SM BR SCT044 19/19 A2994 RMK AO2
KF45 180615Z AUTO 00000KT 9SM CLR 20/20 A2994 RMK AO2
KF45 180605Z AUTO 00000KT 8SM CLR 20/20 A2994 RMK AO2
KF45 180515Z AUTO 25003KT 10SM CLR 20/20 A2994 RMK AO2
KF45 180505Z AUTO 24004KT 10SM CLR 20/20 A2994 RMK AO2
KF45 180415Z AUTO 26006KT 10SM CLR 21/20 A2994 RMK AO2
KF45 180405Z AUTO 25005KT 10SM CLR 22/20 A2993 RMK AO2
KF45 180315Z AUTO 25004KT 10SM CLR 22/20 A2992 RMK AO2
KF45 180305Z AUTO 25005KT 10SM CLR 22/20 A2992 RMK AO2
KF45 180215Z AUTO 24006KT 10SM FEW044 24/20 A2991 RMK AO2
KF45 180205Z AUTO 25007KT 10SM SCT044 24/20 A2991 RMK AO2
KF45 180115Z AUTO 24005KT 10SM BKN048 24/19 A2989 RMK AO2
KF45 180105Z AUTO 24006KT 10SM BKN048 24/19 A2989 RMK AO2
KF45 180015Z AUTO 25005KT 10SM SCT060 26/18 A2987 RMK AO2
KF45 180005Z AUTO 24004KT 10SM FEW060 27/18 A2987 RMK AO2
KF45 172330Z AUTO 25005KT 10SM CLR 28/17 A2986 RMK AO2
KF45 172325Z AUTO 26006KT 10SM CLR 28/17 A2986 RMK AO2
KF45 172305Z AUTO 23006KT 10SM CLR 29/16 A2985 RMK AO2
KF45 172230Z AUTO 24008KT 10SM CLR 30/15 A2985 RMK AO2
KF45 172225Z AUTO 26009G14KT 10SM CLR 31/15 A2985 RMK AO2
KF45 172205Z AUTO 25010G16KT 10SM CLR 32/15 A2984 RMK AO2
KF45 172115Z AUTO 26012G15KT 10SM CLR 33/15 A2983 RMK AO2
KF45 172105Z AUTO 25009KT 10SM CLR 33/15 A2983 RMK AO2
KF45 172020Z AUTO 26010G18KT 10SM CLR 34/16 A2984 RMK AO2
KF45 172005Z AUTO 22008KT 190V260 10SM CLR 34/16 A2985 RMK AO2
KF45 171915Z AUTO 23012G17KT 10SM FEW050 34/17 A2987 RMK AO2
KF45 171905Z AUTO 21006G16KT 10SM FEW050 33/17 A2987 RMK AO2
KF45 171805Z AUTO 22011G17KT 10SM FEW049 33/17 A2990 RMK AO2
KF45 171700Z AUTO 27009KT 220V290 10SM FEW047 32/17 A2991 RMK AO2
KF45 171615Z AUTO 23009G16KT 10SM CLR 32/17 A2992 RMK AO2
KF45 171605Z AUTO 22010KT 10SM CLR 31/18 A2992 RMK AO2
KF45 171515Z AUTO 23009KT 10SM FEW034 30/19 A2995 RMK AO2
KF45 171505Z AUTO 24008KT 10SM CLR 29/19 A2995 RMK AO2
KF45 171415Z AUTO 27009KT 10SM CLR 28/20 A2995 RMK AO2
KF45 171405Z AUTO 25005KT 220V280 10SM CLR 27/20 A2995 RMK AO2
KF45 171315Z AUTO 22004KT 10SM CLR 23/23 A2994 RMK AO2
KF45 171305Z AUTO 23004KT 10SM CLR 23/23 A2994 RMK AO2
KF45 171210Z AUTO 00000KT 3SM BR CLR 20/20 A2992 RMK AO2
KF45 171205Z AUTO 00000KT 3SM BR CLR 20/20 A2992 RMK AO2
KF45 171115Z AUTO 00000KT 1/2SM FG VV005 17/17 A2990 RMK AO2
KF45 171105Z AUTO 00000KT M1/4SM FG VV000 17/17 A2991 RMK AO2
KF45 171015Z AUTO 00000KT 4SM BR FEW039 SCT048 17/17 A2990 RMK AO2
KF45 171005Z AUTO 00000KT 9SM SCT039 SCT048 17/17 A2989 RMK AO2